createdAt,value
2023-04-24T00:01:21.555Z,7.55
2023-04-24T00:03:52.548Z,7.57
2023-04-24T00:06:22.215Z,7.57
2023-04-24T00:08:54.095Z,7.95
2023-04-24T00:11:22.185Z,7.40
2023-04-24T00:13:50.565Z,7.40
2023-04-24T00:16:18.878Z,8.35
2023-04-24T00:18:48.815Z,8.48
2023-04-24T00:21:18.734Z,7.90
2023-04-24T00:23:46.805Z,7.97
2023-04-24T00:26:15.345Z,7.93
2023-04-24T00:28:43.950Z,7.90
2023-04-24T00:31:12.699Z,7.65
2023-04-24T00:33:41.681Z,7.22
2023-04-24T00:36:10.068Z,8.18
2023-04-24T00:38:41.737Z,8.27
2023-04-24T00:41:12.195Z,8.38
2023-04-24T00:43:40.938Z,7.97
2023-04-24T00:46:09.342Z,7.78
2023-04-24T00:48:40.542Z,8.07
2023-04-24T00:51:09.697Z,8.27
2023-04-24T00:53:38.116Z,8.23
2023-04-24T00:56:07.642Z,8.63
2023-04-24T00:58:35.737Z,7.50
2023-04-24T01:01:08.554Z,9.45
2023-04-24T01:03:38.212Z,8.32
2023-04-24T01:06:08.054Z,7.75
2023-04-24T01:08:36.825Z,8.85
2023-04-24T01:11:07.284Z,8.10
2023-04-24T01:13:36.671Z,8.75
2023-04-24T01:16:05.556Z,9.25
2023-04-24T01:18:34.087Z,9.15
2023-04-24T01:21:06.066Z,8.30
2023-04-24T01:23:36.468Z,8.35
2023-04-24T01:26:05.137Z,9.13
2023-04-24T01:28:33.685Z,9.18
2023-04-24T01:31:01.807Z,8.70
2023-04-24T01:33:29.865Z,9.15
2023-04-24T01:35:58.699Z,9.30
2023-04-24T01:38:27.071Z,8.50
2023-04-24T01:40:58.117Z,9.15
2023-04-24T01:43:26.587Z,9.38
2023-04-24T01:45:57.033Z,8.88
2023-04-24T01:48:25.318Z,8.68
2023-04-24T01:50:53.783Z,9.18
2023-04-24T01:53:22.572Z,8.57
2023-04-24T01:55:50.994Z,8.93
2023-04-24T01:58:21.607Z,8.65
2023-04-24T02:00:57.142Z,9.25
2023-04-24T02:03:25.462Z,8.70
2023-04-24T02:05:53.867Z,9.13
2023-04-24T02:08:21.908Z,9.57
2023-04-24T02:10:50.784Z,8.93
2023-04-24T02:13:20.700Z,9.23
2023-04-24T02:15:49.037Z,9.30
2023-04-24T02:18:18.199Z,8.70
2023-04-24T02:20:47.111Z,9.23
2023-04-24T02:23:15.741Z,9.02
2023-04-24T02:25:44.109Z,9.38
2023-04-24T02:28:12.155Z,8.93
2023-04-24T02:30:41.829Z,9.05
2023-04-24T02:33:10.327Z,8.95
2023-04-24T02:35:38.990Z,8.93
2023-04-24T02:38:07.097Z,8.75
2023-04-24T02:40:35.364Z,8.88
2023-04-24T02:43:03.564Z,9.15
2023-04-24T02:45:32.281Z,9.00
2023-04-24T02:48:04.085Z,8.77
2023-04-24T02:50:32.881Z,9.30
2023-04-24T02:53:01.526Z,8.65
2023-04-24T02:55:32.437Z,9.27
2023-04-24T02:58:01.039Z,9.07
2023-04-24T03:00:29.174Z,9.15
2023-04-24T03:02:57.836Z,9.30
2023-04-24T03:05:28.420Z,9.40
2023-04-24T03:07:56.626Z,8.48
2023-04-24T03:10:27.017Z,9.07
2023-04-24T03:12:56.254Z,8.60
2023-04-24T03:15:24.779Z,8.82
2023-04-24T03:17:56.783Z,9.00
2023-04-24T03:20:27.101Z,9.38
2023-04-24T03:22:58.848Z,7.90
2023-04-24T03:25:26.975Z,8.35
2023-04-24T03:27:55.835Z,8.32
2023-04-24T03:30:26.628Z,8.20
2023-04-24T03:32:56.414Z,9.30
2023-04-24T03:35:25.031Z,8.13
2023-04-24T03:37:53.181Z,8.23
2023-04-24T03:40:22.696Z,7.50
2023-04-24T03:42:53.157Z,6.13
2023-04-24T03:45:21.798Z,6.95
2023-04-24T03:47:50.484Z,7.38
2023-04-24T03:50:19.478Z,6.68
2023-04-24T03:52:47.954Z,6.30
2023-04-24T03:55:17.603Z,6.40
2023-04-24T03:57:48.497Z,6.78
2023-04-24T04:00:17.203Z,6.75
2023-04-24T04:02:45.807Z,6.55
2023-04-24T04:05:15.898Z,5.70
2023-04-24T04:07:44.699Z,5.97
2023-04-24T04:10:13.200Z,6.20
2023-04-24T04:12:41.427Z,6.22
2023-04-24T04:15:12.498Z,5.88
2023-04-24T04:17:41.117Z,5.85
2023-04-24T04:20:11.709Z,7.07
2023-04-24T04:22:42.748Z,6.30
2023-04-24T04:25:14.757Z,6.57
2023-04-24T04:27:43.684Z,6.22
2023-04-24T04:30:13.548Z,6.13
2023-04-24T04:32:42.495Z,6.22
2023-04-24T04:35:11.112Z,5.70
2023-04-24T04:37:42.368Z,5.90
2023-04-24T04:40:12.926Z,5.60
2023-04-24T04:42:41.865Z,4.85
2023-04-24T04:45:12.838Z,5.30
2023-04-24T04:47:43.045Z,5.32
2023-04-24T04:50:12.550Z,5.00
2023-04-24T04:52:40.781Z,4.85
2023-04-24T04:55:10.679Z,4.45
2023-04-24T04:57:39.260Z,4.53
2023-04-24T05:00:11.555Z,4.18
2023-04-24T05:02:40.754Z,4.20
2023-04-24T05:05:10.993Z,5.50
2023-04-24T05:07:39.308Z,4.10
2023-04-24T05:10:09.209Z,4.28
2023-04-24T05:12:37.209Z,4.32
2023-04-24T05:15:06.132Z,3.40
2023-04-24T05:17:34.577Z,3.55
2023-04-24T05:20:03.084Z,3.35
2023-04-24T05:22:32.706Z,3.28
2023-04-24T05:25:00.808Z,2.63
2023-04-24T05:27:28.873Z,2.90
2023-04-24T05:29:56.932Z,2.80
2023-04-24T05:32:25.109Z,2.53
2023-04-24T05:34:53.646Z,2.83
2023-04-24T05:37:21.718Z,1.98
2023-04-24T05:39:51.303Z,2.17
2023-04-24T05:42:20.945Z,1.83
2023-04-24T05:44:50.745Z,1.95
2023-04-24T05:47:20.929Z,2.00
2023-04-24T05:49:49.269Z,1.50
2023-04-24T05:52:23.066Z,1.77
2023-04-24T05:54:53.311Z,1.70
2023-04-24T05:57:23.415Z,2.00
2023-04-24T05:59:52.428Z,1.30
2023-04-24T06:02:21.156Z,1.27
2023-04-24T06:04:51.303Z,1.30
2023-04-24T06:07:21.532Z,1.17
2023-04-24T06:09:50.311Z,1.00
2023-04-24T06:12:24.004Z,1.40
2023-04-24T06:14:52.576Z,1.05
2023-04-24T06:17:21.100Z,1.10
2023-04-24T06:19:49.531Z,1.40
2023-04-24T06:22:17.696Z,1.25
2023-04-24T06:24:45.747Z,1.00
2023-04-24T06:27:15.300Z,1.10
2023-04-24T06:29:45.924Z,1.10
2023-04-24T06:32:14.187Z,1.05
2023-04-24T06:34:43.304Z,1.00
2023-04-24T06:37:11.498Z,1.00
2023-04-24T06:39:41.042Z,0.90
2023-04-24T06:42:10.478Z,0.88
2023-04-24T06:44:42.095Z,0.90
2023-04-24T06:47:14.534Z,0.90
2023-04-24T06:52:11.558Z,0.80
2023-04-24T06:54:40.037Z,1.13
2023-04-24T06:57:08.536Z,1.73
2023-04-24T06:59:37.072Z,1.08
2023-04-24T07:02:06.404Z,0.73
2023-04-24T07:07:09.977Z,0.77
2023-04-24T07:09:40.136Z,1.00
2023-04-24T07:12:08.789Z,1.00
2023-04-24T07:14:40.620Z,0.85
2023-04-24T07:17:08.700Z,0.90
2023-04-24T07:19:37.347Z,0.73
2023-04-24T07:22:07.094Z,0.80
2023-04-24T07:24:35.315Z,0.55
2023-04-24T07:27:03.480Z,1.00
2023-04-24T07:29:32.003Z,0.80
2023-04-24T07:32:05.087Z,1.10
2023-04-24T07:34:34.801Z,0.73
2023-04-24T07:37:05.514Z,0.65
2023-04-24T07:39:35.093Z,0.85
2023-04-24T07:42:03.753Z,0.68
2023-04-24T07:44:33.478Z,0.77
2023-04-24T07:47:01.750Z,0.70
2023-04-24T07:49:29.914Z,1.10
2023-04-24T07:51:58.016Z,0.60
2023-04-24T07:54:26.168Z,0.70
2023-04-24T07:56:55.827Z,0.70
2023-04-24T07:59:26.736Z,0.70
2023-04-24T08:01:55.205Z,0.70
2023-04-24T08:04:24.969Z,0.90
2023-04-24T08:06:53.569Z,1.25
2023-04-24T08:09:25.337Z,0.70
2023-04-24T08:11:56.152Z,0.70
2023-04-24T08:14:24.342Z,0.70
2023-04-24T08:16:52.739Z,0.80
2023-04-24T08:19:21.179Z,0.60
2023-04-24T08:21:49.236Z,0.88
2023-04-24T08:24:18.755Z,0.95
2023-04-24T08:26:47.103Z,0.93
2023-04-24T08:29:17.135Z,0.70
2023-04-24T08:31:45.553Z,0.90
2023-04-24T08:34:14.034Z,0.90
2023-04-24T08:36:46.978Z,0.80
2023-04-24T08:39:16.713Z,0.82
2023-04-24T08:41:51.155Z,1.08
2023-04-24T08:44:23.330Z,0.93
2023-04-24T08:46:52.670Z,1.00
2023-04-24T08:49:31.265Z,1.33
2023-04-24T08:52:00.854Z,1.02
2023-04-24T08:54:29.196Z,0.80
2023-04-24T08:57:02.042Z,0.63
2023-04-24T08:59:32.602Z,0.90
2023-04-24T09:02:01.704Z,1.08
2023-04-24T09:04:30.757Z,0.80
2023-04-24T09:07:00.432Z,1.00
2023-04-24T09:09:33.052Z,1.13
2023-04-24T09:12:06.524Z,0.93
2023-04-24T09:14:37.765Z,0.90
2023-04-24T09:17:08.600Z,0.77
2023-04-24T09:19:37.481Z,0.82
2023-04-24T09:22:10.376Z,0.80
2023-04-24T09:24:40.226Z,0.93
2023-04-24T09:27:11.278Z,1.30
2023-04-24T09:29:40.877Z,1.02
2023-04-24T09:32:22.950Z,0.95
2023-04-24T09:37:38.670Z,0.80
2023-04-24T09:40:14.211Z,0.50
2023-04-24T09:42:46.351Z,1.02
2023-04-24T09:47:51.447Z,0.80
2023-04-24T09:50:21.102Z,1.37
2023-04-24T09:53:01.201Z,0.90
2023-04-24T09:55:29.607Z,0.90
2023-04-24T09:58:01.471Z,0.75
2023-04-24T10:00:32.279Z,0.73
2023-04-24T10:03:09.422Z,0.70
2023-04-24T10:05:39.768Z,0.80
2023-04-24T10:08:09.066Z,1.02
2023-04-24T10:10:40.765Z,0.70
2023-04-24T10:13:09.822Z,0.80
2023-04-24T10:15:42.177Z,0.80
2023-04-24T10:18:11.502Z,0.85
2023-04-24T10:20:41.394Z,0.88
2023-04-24T10:23:10.130Z,0.88
2023-04-24T10:25:38.896Z,0.90
2023-04-24T10:28:11.141Z,0.77
2023-04-24T10:30:45.695Z,0.70
2023-04-24T10:33:17.198Z,0.90
2023-04-24T10:35:52.514Z,0.95
2023-04-24T10:38:27.794Z,0.60
2023-04-24T10:41:01.061Z,0.73
2023-04-24T10:43:33.121Z,1.00
2023-04-24T10:46:07.444Z,0.88
2023-04-24T10:48:37.641Z,1.00
2023-04-24T10:51:15.950Z,1.02
2023-04-24T10:54:00.543Z,1.13
2023-04-24T10:56:41.086Z,1.20
2023-04-24T10:59:12.715Z,1.33
2023-04-24T11:01:58.186Z,1.20
2023-04-24T11:04:42.789Z,1.15
2023-04-24T11:07:20.534Z,1.42
2023-04-24T11:09:51.051Z,0.80
2023-04-24T11:12:25.490Z,0.90
2023-04-24T11:15:03.892Z,0.90
2023-04-24T11:17:35.065Z,0.75
2023-04-24T11:20:25.066Z,0.80
2023-04-24T11:22:58.945Z,0.77
2023-04-24T11:25:27.145Z,0.40
2023-04-24T11:28:07.412Z,0.65
2023-04-24T11:30:42.972Z,0.70
2023-04-24T11:33:22.059Z,0.60
2023-04-24T11:35:50.107Z,0.60
2023-04-24T11:38:24.560Z,0.60
2023-04-24T11:40:54.436Z,0.90
2023-04-24T11:43:22.936Z,0.80
2023-04-24T11:45:51.963Z,0.60
2023-04-24T11:48:25.590Z,0.90
2023-04-24T11:50:54.174Z,0.70
2023-04-24T11:53:26.717Z,0.40
2023-04-24T11:55:56.921Z,0.70
2023-04-24T11:58:25.301Z,0.70
2023-04-24T12:00:59.514Z,0.70
2023-04-24T12:03:29.970Z,1.08
2023-04-24T12:06:07.499Z,0.52
2023-04-24T12:08:37.928Z,0.88
2023-04-24T12:11:10.440Z,0.80
2023-04-24T12:13:39.092Z,0.80
2023-04-24T12:16:07.481Z,0.80
2023-04-24T12:18:37.380Z,0.65
2023-04-24T12:21:21.356Z,0.70
2023-04-24T12:23:51.921Z,0.80
2023-04-24T12:26:21.472Z,0.70
2023-04-24T12:28:52.328Z,0.80
2023-04-24T12:31:25.368Z,0.80
2023-04-24T12:33:55.043Z,0.90
2023-04-24T12:36:23.833Z,0.75
2023-04-24T12:38:59.592Z,0.88
2023-04-24T12:42:00.923Z,0.73
2023-04-24T12:44:38.695Z,1.02
2023-04-24T12:47:07.665Z,0.70
2023-04-24T12:49:37.260Z,0.90
2023-04-24T12:52:05.768Z,0.65
2023-04-24T12:54:35.084Z,0.90
2023-04-24T12:57:03.305Z,0.90
2023-04-24T12:59:36.013Z,0.55
2023-04-24T13:02:12.387Z,0.90
2023-04-24T13:04:43.604Z,0.73
2023-04-24T13:07:20.359Z,0.75
2023-04-24T13:09:57.788Z,0.70
2023-04-24T13:12:31.515Z,0.63
2023-04-24T13:15:00.528Z,0.82
2023-04-24T13:17:29.000Z,0.98
2023-04-24T13:20:04.889Z,0.70
2023-04-24T13:22:33.230Z,0.80
2023-04-24T13:25:02.361Z,0.82
2023-04-24T13:27:30.986Z,1.85
2023-04-24T13:29:59.536Z,0.93
2023-04-24T13:32:27.911Z,0.70
2023-04-24T13:34:57.696Z,0.75
2023-04-24T13:37:27.030Z,0.60
2023-04-24T13:39:55.351Z,0.80
2023-04-24T13:42:23.790Z,0.80
2023-04-24T13:44:52.787Z,0.93
2023-04-24T13:47:20.936Z,0.93
2023-04-24T13:49:49.653Z,0.95
2023-04-24T13:52:19.691Z,0.75
2023-04-24T13:54:49.149Z,0.95
2023-04-24T13:57:17.911Z,1.20
2023-04-24T13:59:46.230Z,1.10
2023-04-24T14:02:16.214Z,0.80
2023-04-24T14:04:45.153Z,0.85
2023-04-24T14:07:13.406Z,0.90
2023-04-24T14:09:42.039Z,0.77
2023-04-24T14:12:11.629Z,0.70
2023-04-24T14:14:40.173Z,1.10
2023-04-24T14:17:08.307Z,0.82
2023-04-24T14:19:36.506Z,1.00
2023-04-24T14:22:05.001Z,0.80
2023-04-24T14:24:32.959Z,0.90
2023-04-24T14:27:01.466Z,1.08
2023-04-24T14:29:30.814Z,1.15
2023-04-24T14:31:59.015Z,0.90
2023-04-24T14:34:27.323Z,0.90
2023-04-24T14:36:55.615Z,1.00
2023-04-24T14:39:26.672Z,1.27
2023-04-24T14:41:54.972Z,1.20
2023-04-24T14:44:23.427Z,1.48
2023-04-24T14:46:52.878Z,1.27
2023-04-24T14:49:21.366Z,1.00
2023-04-24T14:51:49.786Z,1.02
2023-04-24T14:54:20.649Z,0.82
2023-04-24T14:56:48.996Z,1.20
2023-04-24T14:59:17.236Z,1.20
2023-04-24T15:01:45.589Z,1.27
2023-04-24T15:04:15.366Z,1.27
2023-04-24T15:06:44.462Z,1.70
2023-04-24T15:09:12.432Z,2.65
2023-04-24T15:11:40.590Z,2.22
2023-04-24T15:14:11.142Z,1.98
2023-04-24T15:16:41.970Z,1.33
2023-04-24T15:19:10.436Z,2.47
2023-04-24T15:21:41.419Z,2.33
2023-04-24T15:24:10.451Z,2.05
2023-04-24T15:26:39.046Z,3.63
2023-04-24T15:29:07.286Z,1.83
2023-04-24T15:31:35.450Z,2.17
2023-04-24T15:34:03.948Z,1.70
2023-04-24T15:36:32.099Z,1.23
2023-04-24T15:39:04.796Z,1.17
2023-04-24T15:41:39.276Z,1.05
2023-04-24T15:44:07.680Z,1.20
2023-04-24T15:46:37.398Z,1.00
2023-04-24T15:49:22.954Z,1.00
2023-04-24T15:51:54.292Z,0.93
2023-04-24T15:54:24.784Z,0.95
2023-04-24T15:56:53.472Z,1.10
2023-04-24T15:59:23.775Z,1.10
2023-04-24T16:01:57.279Z,0.95
2023-04-24T16:04:28.923Z,1.08
2023-04-24T16:06:58.641Z,1.10
2023-04-24T16:09:29.653Z,1.10
2023-04-24T16:11:58.569Z,1.20
2023-04-24T16:14:27.513Z,1.65
2023-04-24T16:16:56.401Z,1.80
2023-04-24T16:19:25.913Z,1.38
2023-04-24T16:21:56.362Z,1.45
2023-04-24T16:24:25.532Z,1.40
2023-04-24T16:26:57.230Z,1.48
2023-04-24T16:29:25.739Z,1.15
2023-04-24T16:31:54.186Z,1.33
2023-04-24T16:34:22.730Z,1.30
2023-04-24T16:36:51.711Z,1.33
2023-04-24T16:39:21.234Z,1.40
2023-04-24T16:41:50.059Z,1.17
2023-04-24T16:44:20.230Z,1.40
2023-04-24T16:46:48.759Z,1.65
2023-04-24T16:49:16.950Z,1.30
2023-04-24T16:51:47.209Z,1.65
2023-04-24T16:54:16.319Z,1.73
2023-04-24T16:56:44.716Z,1.35
2023-04-24T16:59:13.153Z,1.50
2023-04-24T17:01:43.218Z,1.13
2023-04-24T17:04:11.989Z,1.10
2023-04-24T17:06:40.549Z,0.82
2023-04-24T17:09:09.523Z,1.10
2023-04-24T17:11:37.908Z,1.20
2023-04-24T17:14:06.228Z,1.10
2023-04-24T17:16:34.814Z,1.08
2023-04-24T17:19:08.834Z,0.85
2023-04-24T17:21:37.742Z,0.90
2023-04-24T17:24:07.589Z,1.13
2023-04-24T17:26:37.650Z,1.00
2023-04-24T17:29:05.754Z,1.25
2023-04-24T17:31:35.162Z,1.30
2023-04-24T17:34:06.579Z,1.20
2023-04-24T17:36:35.139Z,1.63
2023-04-24T17:39:03.818Z,1.48
2023-04-24T17:41:33.842Z,1.60
2023-04-24T17:44:02.208Z,1.55
2023-04-24T17:46:31.677Z,1.58
2023-04-24T17:49:00.116Z,1.30
2023-04-24T17:51:29.970Z,1.27
2023-04-24T17:54:00.160Z,1.10
2023-04-24T17:56:28.612Z,0.80
2023-04-24T17:58:59.790Z,0.75
2023-04-24T18:01:29.611Z,0.73
2023-04-24T18:03:57.877Z,0.98
2023-04-24T18:06:28.004Z,0.60
2023-04-24T18:08:57.483Z,0.60
2023-04-24T18:11:26.126Z,0.65
2023-04-24T18:13:55.145Z,0.32
2023-04-24T18:16:25.207Z,0.47
2023-04-24T18:18:59.794Z,0.50
2023-04-24T18:21:29.254Z,0.85
2023-04-24T18:24:00.479Z,0.65
2023-04-24T18:26:28.786Z,0.50
2023-04-24T18:28:56.980Z,0.50
2023-04-24T18:31:25.598Z,1.45
2023-04-24T18:33:55.807Z,0.68
2023-04-24T18:36:23.787Z,0.60
2023-04-24T18:38:51.963Z,0.73
2023-04-24T18:41:21.685Z,0.60
2023-04-24T18:43:51.942Z,0.77
2023-04-24T18:46:20.564Z,0.90
2023-04-24T18:48:49.385Z,0.80
2023-04-24T18:51:18.610Z,0.77
2023-04-24T18:53:46.906Z,0.95
2023-04-24T18:56:15.104Z,1.00
2023-04-24T18:58:46.501Z,0.70
2023-04-24T19:01:14.977Z,0.90
2023-04-24T19:03:43.140Z,0.80
2023-04-24T19:06:11.781Z,0.90
2023-04-24T19:08:42.426Z,0.88
2023-04-24T19:11:10.992Z,1.00
2023-04-24T19:13:39.172Z,1.48
2023-04-24T19:16:09.287Z,1.23
2023-04-24T19:18:37.243Z,1.40
2023-04-24T19:21:05.529Z,1.30
2023-04-24T19:23:36.825Z,1.40
2023-04-24T19:26:05.019Z,1.40
2023-04-24T19:28:33.414Z,1.83
2023-04-24T19:31:02.066Z,1.55
2023-04-24T19:33:33.278Z,1.92
2023-04-24T19:36:01.643Z,2.20
2023-04-24T19:38:30.007Z,1.90
2023-04-24T19:40:59.149Z,1.83
2023-04-24T19:43:28.819Z,2.13
2023-04-24T19:46:00.510Z,2.38
2023-04-24T19:48:32.681Z,2.17
2023-04-24T19:51:01.194Z,2.50
2023-04-24T19:53:29.518Z,2.60
2023-04-24T19:55:58.289Z,2.88
2023-04-24T19:58:26.592Z,2.88
2023-04-24T20:00:54.866Z,2.65
2023-04-24T20:03:32.897Z,2.95
2023-04-24T20:06:03.715Z,2.42
2023-04-24T20:08:31.848Z,2.00
2023-04-24T20:11:00.850Z,2.50
2023-04-24T20:13:32.791Z,2.83
2023-04-24T20:16:02.359Z,2.35
2023-04-24T20:18:33.250Z,2.33
2023-04-24T20:21:01.802Z,2.58
2023-04-24T20:23:31.643Z,2.67
2023-04-24T20:26:01.271Z,2.78
2023-04-24T20:28:30.385Z,2.50
2023-04-24T20:30:59.491Z,2.20
2023-04-24T20:33:30.413Z,2.40
2023-04-24T20:35:58.623Z,3.05
2023-04-24T20:38:26.754Z,2.70
2023-04-24T20:40:58.332Z,2.60
2023-04-24T20:43:28.695Z,2.92
2023-04-24T20:45:59.966Z,3.10
2023-04-24T20:48:28.480Z,3.10
2023-04-24T20:50:56.921Z,3.10
2023-04-24T20:53:25.331Z,3.25
2023-04-24T20:55:53.618Z,3.95
2023-04-24T20:58:24.107Z,3.30
2023-04-24T21:00:52.882Z,3.70
2023-04-24T21:03:21.382Z,4.70
2023-04-24T21:05:52.598Z,3.70
2023-04-24T21:08:20.832Z,4.75
2023-04-24T21:10:49.173Z,4.75
2023-04-24T21:13:17.411Z,4.20
2023-04-24T21:15:47.357Z,4.63
2023-04-24T21:18:16.197Z,4.57
2023-04-24T21:20:46.460Z,4.15
2023-04-24T21:23:16.743Z,4.82
2023-04-24T21:25:45.533Z,4.53
2023-04-24T21:28:13.832Z,4.60
2023-04-24T21:30:42.111Z,4.65
2023-04-24T21:33:12.561Z,5.03
2023-04-24T21:35:40.784Z,4.85
2023-04-24T21:38:08.909Z,4.97
2023-04-24T21:40:37.504Z,4.18
2023-04-24T21:43:05.552Z,4.10
2023-04-24T21:45:33.574Z,4.70
2023-04-24T21:48:02.198Z,5.57
2023-04-24T21:50:32.437Z,5.00
2023-04-24T21:53:00.500Z,4.95
2023-04-24T21:55:28.896Z,4.82
2023-04-24T21:57:57.402Z,5.10
2023-04-24T22:00:25.970Z,5.28
2023-04-24T22:02:54.483Z,5.65
2023-04-24T22:05:22.845Z,5.43
2023-04-24T22:07:54.237Z,5.57
2023-04-24T22:10:22.825Z,5.70
2023-04-24T22:12:51.335Z,5.57
2023-04-24T22:15:21.066Z,6.25
2023-04-24T22:17:50.047Z,5.90
2023-04-24T22:20:18.189Z,5.93
2023-04-24T22:22:46.603Z,5.50
2023-04-24T22:25:18.536Z,5.53
2023-04-24T22:27:46.841Z,5.20
2023-04-24T22:30:15.380Z,5.25
2023-04-24T22:32:44.269Z,4.75
2023-04-24T22:35:12.664Z,5.25
2023-04-24T22:37:40.724Z,5.15
2023-04-24T22:40:10.275Z,4.82
2023-04-24T22:42:42.124Z,4.10
2023-04-24T22:45:13.403Z,4.53
2023-04-24T22:47:41.476Z,5.03
2023-04-24T22:50:11.710Z,4.75
2023-04-24T22:52:41.317Z,5.30
2023-04-24T22:55:12.074Z,4.72
2023-04-24T22:57:42.543Z,5.50
2023-04-24T23:00:12.557Z,4.43
2023-04-24T23:02:42.880Z,4.50
2023-04-24T23:05:15.517Z,3.80
2023-04-24T23:07:45.143Z,3.42
2023-04-24T23:10:13.362Z,3.85
2023-04-24T23:12:43.796Z,3.97
2023-04-24T23:15:12.648Z,3.58
2023-04-24T23:17:41.778Z,3.33
2023-04-24T23:20:17.812Z,3.28
2023-04-24T23:22:46.685Z,3.38
2023-04-24T23:25:17.824Z,2.70
2023-04-24T23:27:47.338Z,3.15
2023-04-24T23:30:15.653Z,2.78
2023-04-24T23:32:44.797Z,2.70
2023-04-24T23:35:12.944Z,2.88
2023-04-24T23:37:41.350Z,2.85
2023-04-24T23:40:11.901Z,2.63
2023-04-24T23:42:40.414Z,2.88
2023-04-24T23:45:15.945Z,2.38
2023-04-24T23:47:44.406Z,3.03
2023-04-24T23:50:12.856Z,2.95
2023-04-24T23:52:41.474Z,2.97
2023-04-24T23:55:10.301Z,2.80
2023-04-24T23:57:40.034Z,2.58
